Terminal Aerodrome Forecast
Issued by NWS

Home | Current Version | Previous Version | Text Only | Print | Product List | Glossary On
Versions: 1 2 3 4 5 6 7 8 9 10 11 12 13
000
FTUS44 KLZK 130500
TAFHRO
TAF
KHRO 130533Z 1306/1406 21003KT P6SM SKC
     FM131500 24010KT P6SM SKC
     FM131800 23010KT P6SM SCT050
     FM140000 21005KT P6SM SCT050 SCT250
     FM140300 21005KT P6SM VCTS SCT050CB BKN100=

USA.gov is the U.S. government's official web portal to all federal, state and local government web resources and services.